Time;durP1;ratioP1;P1;durP2;ratioP2;P2;SDS_P1;SDS_P2;PMS_P1;PMS_P2;Temp;Humidity;BMP_temperature;BMP_pressure;BME280_temperature;BME280_humidity;BME280_pressure;Samples;Min_cycle;Max_cycle;Signal;HPM_P1;HPM_P2
2022/05/09 00:00:20;;;;;;;11.05;2.70;;;10.50;99.90;;;;;;5063488;28;37959;-76
2022/05/09 00:02:46;;;;;;;8.38;2.60;;;10.50;99.90;;;;;;5070160;28;39227;-76
2022/05/09 00:05:15;;;;;;;8.43;2.67;;;10.50;99.90;;;;;;5075623;28;38144;-75
2022/05/09 00:07:42;;;;;;;10.95;2.50;;;10.50;99.90;;;;;;5074663;28;39382;-76
2022/05/09 00:10:11;;;;;;;13.18;2.70;;;10.40;99.90;;;;;;5083043;27;39454;-75
2022/05/09 00:12:37;;;;;;;10.07;2.92;;;10.40;99.90;;;;;;5066166;28;39284;-75
2022/05/09 00:15:05;;;;;;;13.05;3.22;;;10.30;99.90;;;;;;5071052;27;37561;-76
2022/05/09 00:17:31;;;;;;;8.73;2.60;;;10.30;99.90;;;;;;5079065;28;39356;-76
2022/05/09 00:19:57;;;;;;;12.35;2.85;;;10.20;99.90;;;;;;5073567;27;37238;-76
2022/05/09 00:22:24;;;;;;;8.88;2.72;;;10.20;99.90;;;;;;5075221;28;37838;-76
2022/05/09 00:24:50;;;;;;;11.80;3.15;;;10.10;99.90;;;;;;5069922;28;37193;-76
2022/05/09 00:27:17;;;;;;;8.18;3.47;;;10.20;99.90;;;;;;5072988;28;39467;-76
2022/05/09 00:29:43;;;;;;;12.27;3.03;;;10.10;99.90;;;;;;5069103;28;40842;-76
2022/05/09 00:32:09;;;;;;;8.88;2.88;;;10.00;99.90;;;;;;5060704;28;39881;-76
2022/05/09 00:34:37;;;;;;;9.13;3.20;;;10.00;99.90;;;;;;5062705;28;37734;-76
2022/05/09 00:37:04;;;;;;;14.25;2.90;;;10.00;99.90;;;;;;5069775;28;39807;-76
2022/05/09 00:39:33;;;;;;;11.65;2.95;;;10.00;99.90;;;;;;5066300;28;36262;-76
2022/05/09 00:42:08;;;;;;;9.50;2.63;;;10.00;99.90;;;;;;5093916;27;38804;-76
2022/05/09 00:44:34;;;;;;;14.40;2.95;;;9.90;99.90;;;;;;5070498;28;48889;-76
2022/05/09 00:47:00;;;;;;;14.80;2.92;;;9.90;99.90;;;;;;5070132;28;37944;-75
2022/05/09 00:49:45;;;;;;;8.47;2.97;;;9.90;99.90;;;;;;5073465;28;48280;-75
2022/05/09 00:52:26;;;;;;;9.38;2.90;;;9.80;99.90;;;;;;5066653;27;38750;-75
2022/05/09 00:55:11;;;;;;;10.77;2.78;;;9.80;99.90;;;;;;5087113;27;36060;-76
2022/05/09 00:57:43;;;;;;;11.27;3.40;;;9.80;99.90;;;;;;5055385;28;48604;-76
2022/05/09 01:00:16;;;;;;;13.10;3.00;;;9.80;99.90;;;;;;5060642;27;38764;-76
2022/05/09 01:02:48;;;;;;;9.93;2.70;;;9.70;99.90;;;;;;5056294;28;38690;-76
2022/05/09 01:05:16;;;;;;;12.52;3.08;;;9.70;99.90;;;;;;5052387;27;36452;-76
2022/05/09 01:07:43;;;;;;;9.05;3.20;;;9.70;99.90;;;;;;5055542;28;40110;-76
2022/05/09 01:10:15;;;;;;;10.47;3.13;;;9.70;99.90;;;;;;5048668;27;40628;-75
2022/05/09 01:12:43;;;;;;;11.52;3.03;;;9.60;99.90;;;;;;5049874;28;38231;-76
2022/05/09 01:15:13;;;;;;;8.67;2.77;;;9.60;99.90;;;;;;5049267;27;37087;-76
2022/05/09 01:17:40;;;;;;;8.75;2.72;;;9.60;99.90;;;;;;5053088;28;39727;-76
2022/05/09 01:20:10;;;;;;;11.00;2.83;;;9.50;99.90;;;;;;5058936;27;38723;-75
2022/05/09 01:22:38;;;;;;;14.63;3.17;;;9.50;99.90;;;;;;5078446;27;38026;-76
2022/05/09 01:25:09;;;;;;;14.07;3.10;;;9.50;99.90;;;;;;5077951;27;38389;-76
2022/05/09 01:27:40;;;;;;;8.17;2.93;;;9.40;99.90;;;;;;5067359;27;38677;-76
2022/05/09 01:30:15;;;;;;;12.60;3.63;;;9.40;99.90;;;;;;5067068;27;39779;-76
2022/05/09 01:32:53;;;;;;;7.63;2.80;;;9.40;99.90;;;;;;5070536;28;38163;-76
2022/05/09 01:35:22;;;;;;;10.10;3.37;;;9.40;99.90;;;;;;5069754;27;36984;-75
2022/05/09 01:38:14;;;;;;;13.33;2.87;;;9.30;99.90;;;;;;5080371;28;38353;-76
2022/05/09 01:40:40;;;;;;;13.10;3.23;;;9.30;99.90;;;;;;5089170;27;47244;-76
2022/05/09 01:43:06;;;;;;;10.60;2.80;;;9.30;99.90;;;;;;5062917;28;38570;-76
2022/05/09 01:45:32;;;;;;;12.67;3.83;;;9.30;99.90;;;;;;5079982;28;37515;-75
2022/05/09 01:50:43;;;;;;;12.20;3.23;;;9.30;99.90;;;;;;5056586;27;49469;-76
2022/05/09 01:53:10;;;;;;;13.00;3.30;;;9.20;99.90;;;;;;5061007;27;37332;-76
2022/05/09 01:55:36;;;;;;;12.10;2.53;;;9.20;99.90;;;;;;5066194;27;37861;-76
2022/05/09 01:58:02;;;;;;;11.50;3.63;;;9.20;99.90;;;;;;5056304;28;41134;-76
2022/05/09 02:00:28;;;;;;;12.80;3.17;;;9.20;99.90;;;;;;5040322;28;37236;-76
2022/05/09 02:02:54;;;;;;;12.90;3.40;;;9.10;99.90;;;;;;5057191;27;37850;-76
2022/05/09 02:05:23;;;;;;;9.33;3.13;;;9.10;99.90;;;;;;5080128;27;37667;-76
2022/05/09 02:07:50;;;;;;;11.13;3.20;;;9.10;99.90;;;;;;5079561;27;39777;-75
2022/05/09 02:10:16;;;;;;;8.63;3.20;;;9.10;99.90;;;;;;5079398;27;39212;-75
2022/05/09 02:12:42;;;;;;;9.73;2.80;;;9.10;99.90;;;;;;5080268;28;36368;-76
2022/05/09 02:15:09;;;;;;;11.20;3.37;;;9.00;99.90;;;;;;5082853;28;35975;-76
2022/05/09 02:17:37;;;;;;;9.17;3.30;;;9.00;99.90;;;;;;5080958;28;37815;-76
2022/05/09 02:20:05;;;;;;;10.67;3.33;;;9.00;99.90;;;;;;5082699;27;38010;-75
2022/05/09 02:22:32;;;;;;;12.47;3.30;;;8.90;99.90;;;;;;5084518;28;39082;-76
2022/05/09 02:24:58;;;;;;;15.40;3.70;;;8.90;99.90;;;;;;5078043;27;37608;-75
2022/05/09 02:27:25;;;;;;;13.87;3.60;;;8.90;99.90;;;;;;5068551;28;38864;-76
2022/05/09 02:29:51;;;;;;;15.70;3.60;;;8.90;99.90;;;;;;5068089;28;38821;-76
2022/05/09 02:32:17;;;;;;;10.90;3.07;;;8.90;99.90;;;;;;5075569;28;38066;-76
2022/05/09 02:34:43;;;;;;;14.93;3.63;;;8.80;99.90;;;;;;5077972;28;37282;-76
2022/05/09 02:37:09;;;;;;;13.57;3.30;;;8.80;99.90;;;;;;5081000;28;39819;-76
2022/05/09 02:39:35;;;;;;;7.57;3.20;;;8.80;99.90;;;;;;5079474;27;37949;-76
2022/05/09 02:42:02;;;;;;;12.97;4.00;;;8.80;99.90;;;;;;5076549;28;37380;-76
2022/05/09 02:44:28;;;;;;;16.00;4.07;;;8.70;99.90;;;;;;5081212;28;37431;-75
2022/05/09 02:46:54;;;;;;;10.43;3.70;;;8.70;99.90;;;;;;5079178;28;40529;-76
2022/05/09 02:49:21;;;;;;;11.17;3.57;;;8.70;99.90;;;;;;5081284;27;39296;-76
2022/05/09 02:51:49;;;;;;;7.93;3.33;;;8.70;99.90;;;;;;5082239;28;38787;-76
2022/05/09 02:54:16;;;;;;;13.60;3.97;;;8.60;99.90;;;;;;5083866;28;34378;-76
2022/05/09 02:56:42;;;;;;;10.87;3.47;;;8.60;99.90;;;;;;5081852;28;38283;-76
2022/05/09 02:59:08;;;;;;;10.50;3.73;;;8.50;99.90;;;;;;5081300;27;39870;-76
2022/05/09 03:01:34;;;;;;;12.70;3.87;;;8.50;99.90;;;;;;5076508;28;38414;-76
2022/05/09 03:06:45;;;;;;;17.40;4.73;;;8.50;99.90;;;;;;5081185;28;49156;-77
2022/05/09 03:09:11;;;;;;;13.10;4.67;;;8.40;99.90;;;;;;5081606;28;38490;-76
2022/05/09 03:11:37;;;;;;;9.97;3.63;;;8.40;99.90;;;;;;5078139;27;37729;-77
2022/05/09 03:14:05;;;;;;;14.33;4.33;;;8.40;99.90;;;;;;5055576;28;37857;-78
2022/05/09 03:16:31;;;;;;;14.13;3.93;;;8.30;99.90;;;;;;5057254;28;39718;-78
2022/05/09 03:18:57;;;;;;;14.43;4.00;;;8.30;99.90;;;;;;5058318;28;39149;-78
2022/05/09 03:21:23;;;;;;;13.47;4.03;;;8.30;99.90;;;;;;5074468;27;38465;-78
2022/05/09 03:23:49;;;;;;;10.20;4.03;;;8.30;99.90;;;;;;5080994;28;37853;-78
2022/05/09 03:26:15;;;;;;;9.93;4.13;;;8.20;99.90;;;;;;5080969;28;39930;-78
2022/05/09 03:28:41;;;;;;;17.17;4.90;;;8.20;99.90;;;;;;5084572;28;38046;-77
2022/05/09 03:31:08;;;;;;;15.10;4.83;;;8.20;99.90;;;;;;5087344;27;39891;-77
2022/05/09 03:33:34;;;;;;;15.07;4.40;;;8.20;99.90;;;;;;5088063;27;37345;-78
2022/05/09 03:36:01;;;;;;;8.93;3.97;;;8.10;99.90;;;;;;5084002;27;40304;-77
2022/05/09 03:38:27;;;;;;;14.10;4.17;;;8.20;99.90;;;;;;5083817;28;49249;-77
2022/05/09 03:40:54;;;;;;;12.60;4.60;;;8.10;99.90;;;;;;5086857;28;36638;-77
2022/05/09 03:43:20;;;;;;;15.57;4.40;;;8.10;99.90;;;;;;5104060;27;37661;-77
2022/05/09 03:45:49;;;;;;;13.63;4.20;;;8.10;99.90;;;;;;5083020;28;39261;-77
2022/05/09 03:48:15;;;;;;;9.60;4.30;;;8.10;99.90;;;;;;5082489;28;39236;-77
2022/05/09 03:50:41;;;;;;;13.17;5.03;;;8.00;99.90;;;;;;5079133;28;37249;-77
2022/05/09 03:53:07;;;;;;;12.50;4.27;;;8.00;99.90;;;;;;5081937;28;37933;-76
2022/05/09 03:55:33;;;;;;;12.93;4.70;;;8.00;99.90;;;;;;5076289;28;38869;-77
2022/05/09 03:58:00;;;;;;;10.63;4.00;;;8.00;99.90;;;;;;5080603;27;38651;-77
2022/05/09 04:00:29;;;;;;;17.27;5.03;;;8.00;99.90;;;;;;5076170;28;38573;-77
2022/05/09 04:02:55;;;;;;;11.93;4.93;;;7.90;99.90;;;;;;5079500;28;37376;-77
2022/05/09 04:05:21;;;;;;;13.77;5.23;;;7.90;99.90;;;;;;5086654;27;39195;-77
2022/05/09 04:07:50;;;;;;;17.20;4.53;;;7.90;99.90;;;;;;5074617;28;38374;-77
2022/05/09 04:10:19;;;;;;;12.20;4.40;;;7.90;99.90;;;;;;5085700;28;37166;-77
2022/05/09 04:12:46;;;;;;;19.37;5.60;;;7.80;99.90;;;;;;5081531;28;38059;-77
2022/05/09 04:17:57;;;;;;;13.97;4.80;;;7.80;99.90;;;;;;5070431;28;38842;-77
2022/05/09 04:20:24;;;;;;;11.20;5.33;;;7.80;99.90;;;;;;5069414;27;38087;-76
2022/05/09 04:22:52;;;;;;;15.10;5.03;;;7.80;99.90;;;;;;5077363;28;37411;-77
2022/05/09 04:25:19;;;;;;;11.57;4.90;;;7.70;99.90;;;;;;5069455;28;39735;-77
2022/05/09 04:27:46;;;;;;;12.17;5.47;;;7.70;99.90;;;;;;5073949;28;39194;-77
2022/05/09 04:30:12;;;;;;;16.70;5.50;;;7.70;99.90;;;;;;5074695;28;37704;-77
2022/05/09 04:32:40;;;;;;;12.63;4.97;;;7.70;99.90;;;;;;5071051;28;36986;-77
2022/05/09 04:35:11;;;;;;;13.93;5.43;;;7.70;99.90;;;;;;5068505;28;39590;-77
2022/05/09 04:37:39;;;;;;;14.13;5.90;;;7.70;99.90;;;;;;5075310;28;38617;-78
2022/05/09 04:40:06;;;;;;;13.27;5.03;;;7.60;99.90;;;;;;5084690;27;37894;-77
2022/05/09 04:42:34;;;;;;;14.30;5.60;;;7.60;99.90;;;;;;5085191;27;20091;-78
2022/05/09 04:45:00;;;;;;;16.10;5.60;;;7.70;99.90;;;;;;5078761;28;38565;-77
2022/05/09 04:47:27;;;;;;;13.47;6.30;;;7.70;99.90;;;;;;5063711;28;38540;-78
2022/05/09 04:49:53;;;;;;;13.33;5.03;;;7.70;99.90;;;;;;5090194;27;40218;-78
2022/05/09 04:52:19;;;;;;;10.53;5.77;;;7.80;99.90;;;;;;5073050;28;38810;-77
2022/05/09 04:54:45;;;;;;;20.17;6.13;;;7.90;99.90;;;;;;5068762;28;40679;-78
2022/05/09 04:57:11;;;;;;;16.20;6.57;;;8.00;99.90;;;;;;5072033;27;37709;-78
2022/05/09 04:59:37;;;;;;;15.03;6.20;;;8.00;99.90;;;;;;5075011;28;38783;-78
2022/05/09 05:02:05;;;;;;;21.03;5.60;;;8.10;99.90;;;;;;5079906;28;36661;-77
2022/05/09 05:04:31;;;;;;;16.40;5.57;;;8.10;99.90;;;;;;5079064;28;39681;-77
2022/05/09 05:06:57;;;;;;;14.20;6.33;;;8.20;99.90;;;;;;5075937;28;38506;-78
2022/05/09 05:09:23;;;;;;;18.80;6.27;;;8.30;99.90;;;;;;5057483;28;38015;-77
2022/05/09 05:11:49;;;;;;;15.03;5.90;;;8.40;99.90;;;;;;5074305;28;37906;-78
2022/05/09 05:14:16;;;;;;;11.73;5.73;;;8.50;99.90;;;;;;5071914;28;38400;-78
2022/05/09 05:17:01;;;;;;;16.93;5.73;;;8.50;99.90;;;;;;5067319;28;37079;-78
2022/05/09 05:19:27;;;;;;;13.87;5.47;;;8.60;99.90;;;;;;5078130;27;47958;-78
2022/05/09 05:21:56;;;;;;;18.20;6.13;;;8.70;99.90;;;;;;5078015;28;37429;-78
2022/05/09 05:24:22;;;;;;;12.00;5.30;;;8.80;99.90;;;;;;5085967;27;39784;-78
2022/05/09 05:26:48;;;;;;;15.53;5.63;;;8.90;99.90;;;;;;5091769;27;38720;-78
2022/05/09 05:29:15;;;;;;;15.87;5.83;;;9.00;99.90;;;;;;5082488;28;37051;-77
2022/05/09 05:31:43;;;;;;;17.40;6.10;;;9.10;99.90;;;;;;5072206;28;38115;-75
2022/05/09 05:34:09;;;;;;;16.15;6.13;;;9.20;99.90;;;;;;5074537;28;38759;-75
2022/05/09 05:36:35;;;;;;;11.33;6.27;;;9.40;99.90;;;;;;5081705;28;38029;-76
2022/05/09 05:39:01;;;;;;;14.15;5.88;;;9.50;99.90;;;;;;5071467;28;38633;-79
2022/05/09 05:41:27;;;;;;;15.55;6.95;;;9.60;99.90;;;;;;5076320;28;46449;-75
2022/05/09 05:43:54;;;;;;;19.33;6.97;;;9.80;99.90;;;;;;5075488;28;39826;-75
2022/05/09 05:46:21;;;;;;;14.52;5.60;;;9.80;99.90;;;;;;5072610;28;39145;-76
2022/05/09 05:48:47;;;;;;;12.93;6.07;;;9.90;99.90;;;;;;5090290;27;39494;-76
2022/05/09 05:51:14;;;;;;;15.13;6.07;;;9.90;99.90;;;;;;5078645;28;37782;-76
2022/05/09 05:53:41;;;;;;;14.13;4.50;;;10.00;99.90;;;;;;5062643;28;39620;-74
2022/05/09 05:56:07;;;;;;;12.52;6.15;;;10.10;99.90;;;;;;5072462;27;39102;-74
2022/05/09 05:58:33;;;;;;;16.48;6.07;;;10.20;99.90;;;;;;5075856;28;39002;-75
2022/05/09 06:00:59;;;;;;;20.38;6.32;;;10.30;99.90;;;;;;5072362;28;37185;-75
2022/05/09 06:03:25;;;;;;;15.52;6.35;;;10.40;99.90;;;;;;5058507;28;39424;-74
2022/05/09 06:05:51;;;;;;;15.02;6.10;;;10.50;99.90;;;;;;5050201;28;39129;-75
2022/05/09 06:08:18;;;;;;;20.92;6.85;;;10.50;99.90;;;;;;5086339;27;38497;-75
2022/05/09 06:10:44;;;;;;;17.13;6.82;;;10.70;99.90;;;;;;5052489;28;38872;-75
2022/05/09 06:13:10;;;;;;;17.15;6.13;;;10.90;99.90;;;;;;5058129;27;39394;-74
2022/05/09 06:15:36;;;;;;;16.63;6.60;;;11.10;99.90;;;;;;5065671;27;38332;-75
2022/05/09 06:18:08;;;;;;;15.13;6.60;;;11.30;99.90;;;;;;5067540;27;38911;-75
2022/05/09 06:20:37;;;;;;;14.15;5.30;;;11.60;99.90;;;;;;5061051;28;37311;-75
2022/05/09 06:23:05;;;;;;;17.63;7.38;;;11.80;99.90;;;;;;5065232;27;38362;-75
2022/05/09 06:25:34;;;;;;;14.07;5.80;;;12.00;99.90;;;;;;5057943;28;38825;-75
2022/05/09 06:28:01;;;;;;;14.20;5.78;;;12.30;99.90;;;;;;5072102;28;37708;-77
2022/05/09 06:30:28;;;;;;;17.67;6.47;;;12.40;99.90;;;;;;5059451;28;47092;-77
2022/05/09 06:32:55;;;;;;;15.93;6.07;;;12.60;99.90;;;;;;5062504;28;40491;-77
2022/05/09 06:35:24;;;;;;;15.77;6.22;;;12.70;99.90;;;;;;5064496;28;39513;-78
2022/05/09 06:37:58;;;;;;;11.40;6.03;;;12.90;99.90;;;;;;5064654;28;38126;-77
2022/05/09 06:40:24;;;;;;;16.50;5.65;;;12.80;99.90;;;;;;5062791;28;41164;-77
2022/05/09 06:42:52;;;;;;;14.43;5.97;;;13.00;99.90;;;;;;5055570;28;40113;-77
2022/05/09 06:45:19;;;;;;;17.52;4.95;;;13.30;99.90;;;;;;5089944;27;38935;-74
2022/05/09 06:47:50;;;;;;;12.73;5.47;;;13.40;99.90;;;;;;5057145;28;39099;-77
2022/05/09 06:50:18;;;;;;;10.48;5.20;;;13.70;99.90;;;;;;5059081;28;37120;-78
2022/05/09 06:52:44;;;;;;;13.48;5.40;;;13.90;99.90;;;;;;5095295;28;40587;-78
2022/05/09 06:55:11;;;;;;;10.68;5.07;;;14.20;99.90;;;;;;5058354;28;38551;-74
2022/05/09 06:57:39;;;;;;;15.60;5.32;;;14.20;99.90;;;;;;5069270;27;38970;-77
2022/05/09 07:00:08;;;;;;;15.45;5.90;;;14.40;99.90;;;;;;5050335;28;37139;-76
2022/05/09 07:02:35;;;;;;;11.25;4.90;;;14.60;99.90;;;;;;5062369;28;39042;-74
2022/05/09 07:05:09;;;;;;;14.27;5.40;;;14.60;99.90;;;;;;5081782;27;38914;-77
2022/05/09 07:07:35;;;;;;;16.20;5.65;;;14.80;99.90;;;;;;5081674;28;48101;-75
2022/05/09 07:10:02;;;;;;;10.65;4.80;;;15.00;99.90;;;;;;5074507;28;38131;-75
2022/05/09 07:12:28;;;;;;;13.60;4.70;;;15.10;99.90;;;;;;5080785;28;39212;-75
2022/05/09 07:14:55;;;;;;;12.95;5.32;;;15.00;99.90;;;;;;5078118;28;37660;-75
2022/05/09 07:17:21;;;;;;;14.05;5.05;;;15.10;99.90;;;;;;5078171;27;37992;-75
2022/05/09 07:19:48;;;;;;;11.68;5.00;;;15.40;99.90;;;;;;5081826;28;37037;-75
2022/05/09 07:22:14;;;;;;;12.20;5.72;;;15.30;99.90;;;;;;5085166;27;38714;-75
2022/05/09 07:24:43;;;;;;;11.82;5.55;;;15.40;99.90;;;;;;5082519;27;38536;-75
2022/05/09 07:27:10;;;;;;;11.18;4.78;;;15.90;99.90;;;;;;5081654;28;38648;-75
2022/05/09 07:29:36;;;;;;;11.88;4.93;;;16.00;99.90;;;;;;5081590;27;37414;-75
2022/05/09 07:32:02;;;;;;;17.48;5.45;;;15.90;99.90;;;;;;5079920;28;38595;-75
2022/05/09 07:34:28;;;;;;;13.18;5.05;;;15.90;99.90;;;;;;5080359;28;39195;-76
2022/05/09 07:36:54;;;;;;;12.23;4.95;;;16.10;99.90;;;;;;5083832;28;38991;-75
2022/05/09 07:39:20;;;;;;;10.18;4.35;;;16.40;99.90;;;;;;5075803;28;38286;-75
2022/05/09 07:41:46;;;;;;;12.90;4.75;;;16.50;99.90;;;;;;5077353;28;39694;-76
2022/05/09 07:44:13;;;;;;;13.32;5.15;;;16.80;99.90;;;;;;5086413;27;38497;-75
2022/05/09 07:46:39;;;;;;;14.27;4.32;;;17.00;99.90;;;;;;5075087;28;38096;-76
2022/05/09 07:49:05;;;;;;;12.27;4.40;;;17.40;99.90;;;;;;5084707;27;37453;-76
2022/05/09 07:51:31;;;;;;;12.95;5.07;;;17.30;99.90;;;;;;5073613;28;39626;-76
2022/05/09 07:53:57;;;;;;;14.43;5.13;;;16.70;99.90;;;;;;5084337;27;38585;-75
2022/05/09 07:56:23;;;;;;;12.98;5.00;;;16.50;99.90;;;;;;5084419;27;38291;-75
2022/05/09 07:58:49;;;;;;;9.93;4.50;;;16.70;99.90;;;;;;5083902;28;37361;-76
2022/05/09 08:01:16;;;;;;;9.27;3.90;;;17.10;99.90;;;;;;5076893;28;39279;-76
2022/05/09 08:03:42;;;;;;;14.80;5.00;;;17.40;99.90;;;;;;5076490;27;39032;-76
2022/05/09 08:06:09;;;;;;;16.13;5.15;;;17.70;99.90;;;;;;5078675;27;38444;-75
2022/05/09 08:08:40;;;;;;;14.27;5.10;;;17.20;99.90;;;;;;5082801;28;37757;-76
2022/05/09 08:11:07;;;;;;;11.30;4.72;;;17.30;99.90;;;;;;5081221;28;40665;-76
2022/05/09 08:13:34;;;;;;;14.00;4.80;;;17.90;99.90;;;;;;5080809;28;38845;-76
2022/05/09 08:16:04;;;;;;;14.63;4.55;;;17.50;99.90;;;;;;5079071;28;38779;-76
2022/05/09 08:18:32;;;;;;;13.00;5.13;;;18.10;99.90;;;;;;5054735;28;47877;-75
2022/05/09 08:20:59;;;;;;;12.98;4.30;;;17.80;99.90;;;;;;5048582;28;39804;-76
2022/05/09 08:23:27;;;;;;;12.38;4.47;;;18.10;99.90;;;;;;5108395;27;37213;-75
2022/05/09 08:25:55;;;;;;;10.93;3.90;;;18.70;99.90;;;;;;5079560;28;38351;-76
2022/05/09 08:28:22;;;;;;;13.95;4.80;;;18.80;99.90;;;;;;5076116;27;37838;-76
2022/05/09 08:30:49;;;;;;;13.93;4.47;;;18.70;99.90;;;;;;5081314;28;39570;-76
2022/05/09 08:33:17;;;;;;;13.43;4.45;;;18.30;99.90;;;;;;5077948;27;38573;-76
2022/05/09 08:35:45;;;;;;;9.82;4.53;;;18.20;99.90;;;;;;5080979;27;38103;-76
2022/05/09 08:38:12;;;;;;;10.23;4.65;;;18.20;99.90;;;;;;5071251;27;37866;-76
2022/05/09 08:40:49;;;;;;;13.40;4.32;;;18.20;99.90;;;;;;5076399;28;39829;-76
2022/05/09 08:43:24;;;;;;;9.88;3.55;;;18.40;99.90;;;;;;5070927;28;39528;-75
2022/05/09 08:46:10;;;;;;;8.32;3.17;;;18.70;99.90;;;;;;5073779;28;39518;-75
2022/05/09 08:48:57;;;;;;;10.98;3.85;;;19.30;99.90;;;;;;5058341;27;48866;-75
2022/05/09 08:51:47;;;;;;;14.52;4.55;;;19.30;99.90;;;;;;5061904;27;39304;-76
2022/05/09 08:54:21;;;;;;;9.82;3.95;;;19.20;99.90;;;;;;5073329;27;38587;-76
2022/05/09 08:56:51;;;;;;;9.50;3.95;;;18.80;99.90;;;;;;5060587;28;38407;-76
2022/05/09 08:59:27;;;;;;;15.23;4.32;;;19.10;99.90;;;;;;5051469;28;36883;-76
2022/05/09 09:02:03;;;;;;;9.35;3.20;;;19.00;99.90;;;;;;5079090;28;40581;-75
2022/05/09 09:04:31;;;;;;;11.85;3.95;;;19.30;99.90;;;;;;5060402;28;47389;-75
2022/05/09 09:07:36;;;;;;;11.48;4.00;;;20.40;99.90;;;;;;5054665;28;39432;-75
2022/05/09 09:10:17;;;;;;;11.70;3.65;;;20.90;99.90;;;;;;5048737;28;47514;-76
2022/05/09 09:13:22;;;;;;;10.40;3.40;;;20.40;99.90;;;;;;5057687;28;39547;-76
2022/05/09 09:16:18;;;;;;;8.57;3.60;;;20.10;99.90;;;;;;5056827;28;48407;-76
2022/05/09 09:19:05;;;;;;;8.73;3.17;;;19.90;99.90;;;;;;5062142;28;48699;-76
2022/05/09 09:21:50;;;;;;;6.32;2.38;;;20.00;99.90;;;;;;5053332;28;46645;-76
2022/05/09 09:24:36;;;;;;;10.10;2.90;;;20.60;99.90;;;;;;5038990;28;39282;-76
2022/05/09 09:27:21;;;;;;;7.22;2.95;;;20.40;99.90;;;;;;5052307;28;39333;-77
2022/05/09 09:29:55;;;;;;;8.23;2.40;;;21.00;99.90;;;;;;5050870;28;39090;-76
2022/05/09 09:32:23;;;;;;;9.30;2.28;;;20.20;99.90;;;;;;5043100;28;37153;-76
2022/05/09 09:35:00;;;;;;;6.55;2.38;;;20.20;99.90;;;;;;5064308;28;39294;-77
2022/05/09 09:37:49;;;;;;;7.32;2.55;;;20.40;99.90;;;;;;5054860;28;39191;-77
2022/05/09 09:40:15;;;;;;;8.30;2.40;;;20.10;99.90;;;;;;5056370;28;38022;-76
2022/05/09 09:42:41;;;;;;;6.80;2.38;;;20.20;99.90;;;;;;5063031;28;38106;-76
2022/05/09 09:45:40;;;;;;;4.22;1.45;;;20.60;99.90;;;;;;5061378;28;39839;-77
2022/05/09 09:48:06;;;;;;;4.53;1.55;;;20.90;99.90;;;;;;5058940;28;39388;-76
2022/05/09 09:50:32;;;;;;;6.15;1.77;;;21.00;99.90;;;;;;5056775;28;39323;-78
2022/05/09 09:53:00;;;;;;;3.17;1.17;;;21.30;99.90;;;;;;5066899;27;37178;-76
2022/05/09 09:55:33;;;;;;;5.97;1.92;;;21.00;99.90;;;;;;5068627;28;39768;-76
2022/05/09 09:58:38;;;;;;;6.43;1.98;;;21.40;99.90;;;;;;5069947;27;39863;-76
2022/05/09 10:01:22;;;;;;;9.40;2.03;;;21.00;99.90;;;;;;5054718;28;48405;-77
2022/05/09 10:04:11;;;;;;;5.20;1.95;;;21.40;99.90;;;;;;5049012;28;37135;-76
2022/05/09 10:06:59;;;;;;;3.90;1.02;;;21.20;99.90;;;;;;5060796;27;48673;-76
2022/05/09 10:09:28;;;;;;;5.38;1.38;;;21.40;99.90;;;;;;5084827;27;38553;-76
2022/05/09 10:11:54;;;;;;;3.60;1.23;;;22.10;99.90;;;;;;5081658;28;39005;-76
2022/05/09 10:14:35;;;;;;;3.55;1.15;;;23.10;99.90;;;;;;5083233;27;38301;-76
2022/05/09 10:17:21;;;;;;;5.93;1.70;;;23.80;99.90;;;;;;5080792;27;38829;-76
2022/05/09 10:19:48;;;;;;;5.75;1.70;;;24.10;99.90;;;;;;5061173;27;38430;-76
2022/05/09 10:25:24;;;;;;;9.32;1.58;;;23.90;99.90;;;;;;5058716;27;37800;-81
2022/05/09 10:28:16;;;;;;;4.72;1.50;;;24.30;99.90;;;;;;5077846;27;38180;-80
2022/05/09 10:30:46;;;;;;;6.93;2.05;;;24.40;99.90;;;;;;5065648;27;48021;-80
2022/05/09 10:33:18;;;;;;;6.03;1.92;;;23.80;99.90;;;;;;5066502;27;39027;-80
2022/05/09 10:35:51;;;;;;;4.50;1.63;;;24.10;99.90;;;;;;5062064;28;37490;-80
2022/05/09 10:38:40;;;;;;;6.93;1.70;;;24.10;99.90;;;;;;5054901;27;37910;-80
2022/05/09 10:41:15;;;;;;;4.75;1.90;;;24.70;99.90;;;;;;5061677;28;37372;-80
2022/05/09 10:43:59;;;;;;;8.05;2.08;;;25.30;99.90;;;;;;5064704;27;39844;-80
2022/05/09 10:46:40;;;;;;;5.28;1.92;;;25.00;99.90;;;;;;5061974;28;37422;-81
2022/05/09 10:49:19;;;;;;;5.97;2.28;;;23.40;99.90;;;;;;5063383;28;37524;-81
2022/05/09 10:51:56;;;;;;;8.32;2.40;;;22.70;99.90;;;;;;5081070;28;37351;-80
2022/05/09 10:54:48;;;;;;;4.85;1.90;;;21.90;99.90;;;;;;5063624;28;38668;-80
2022/05/09 10:57:36;;;;;;;3.40;1.52;;;22.50;99.90;;;;;;5082943;28;37692;-79
2022/05/09 11:00:25;;;;;;;5.38;2.10;;;24.00;99.90;;;;;;5075614;27;38717;-80
2022/05/09 11:02:54;;;;;;;6.30;2.22;;;23.80;99.90;;;;;;5076108;28;37970;-79
2022/05/09 11:05:28;;;;;;;5.82;2.00;;;24.10;99.80;;;;;;5073779;28;37993;-79
2022/05/09 11:08:02;;;;;;;5.43;1.90;;;24.70;99.40;;;;;;5072614;28;37667;-80
2022/05/09 11:10:53;;;;;;;4.07;2.25;;;24.10;99.60;;;;;;5077524;28;46967;-82
2022/05/09 11:13:27;;;;;;;4.18;2.17;;;24.80;99.90;;;;;;5068968;27;37337;-80
2022/05/09 11:16:33;;;;;;;3.85;1.83;;;25.20;99.10;;;;;;5082506;28;38210;-80
2022/05/09 11:19:25;;;;;;;3.47;1.60;;;25.90;98.40;;;;;;5060979;28;47495;-81
2022/05/09 11:22:06;;;;;;;5.40;1.80;;;26.20;97.60;;;;;;5070231;28;48284;-80
2022/05/09 11:24:42;;;;;;;4.30;1.58;;;26.50;98.60;;;;;;5082364;28;47617;-80
2022/05/09 11:27:34;;;;;;;8.45;1.77;;;26.60;97.30;;;;;;5074463;27;37795;-81
2022/05/09 11:30:21;;;;;;;5.05;1.88;;;26.30;97.00;;;;;;5080088;28;39080;-80
2022/05/09 11:33:13;;;;;;;6.05;2.50;;;24.90;99.30;;;;;;5085125;28;48154;-81
2022/05/09 11:35:40;;;;;;;5.90;2.28;;;24.70;98.40;;;;;;5061639;28;48605;-81
2022/05/09 11:38:28;;;;;;;2.95;1.70;;;24.70;99.10;;;;;;5069110;27;38039;-81
2022/05/09 11:41:01;;;;;;;7.05;2.28;;;24.70;96.80;;;;;;5063817;27;37690;-82
2022/05/09 11:43:34;;;;;;;4.70;2.20;;;24.00;97.20;;;;;;5067053;27;48196;-81
2022/05/09 11:46:40;;;;;;;6.63;2.40;;;23.90;97.80;;;;;;5089679;27;39336;-80
2022/05/09 11:49:11;;;;;;;4.75;2.10;;;24.00;99.90;;;;;;5082559;28;48642;-79
2022/05/09 11:51:40;;;;;;;7.22;2.33;;;24.60;99.90;;;;;;5112554;27;37889;-79
2022/05/09 11:54:14;;;;;;;4.78;2.65;;;24.70;96.90;;;;;;5071716;28;39759;-80
2022/05/09 11:56:47;;;;;;;4.95;2.38;;;23.90;97.00;;;;;;5071853;28;39168;-80
2022/05/09 11:59:26;;;;;;;5.28;1.88;;;23.40;98.60;;;;;;5083071;27;38989;-80
2022/05/09 12:01:52;;;;;;;5.95;2.15;;;24.60;98.70;;;;;;5080011;28;38576;-80
2022/05/09 12:04:51;;;;;;;5.40;2.33;;;25.20;97.80;;;;;;5081289;28;39695;-79
2022/05/09 12:07:43;;;;;;;5.60;2.22;;;26.10;98.20;;;;;;5018457;28;38816;-80
2022/05/09 12:10:15;;;;;;;4.25;1.95;;;26.30;96.90;;;;;;5062275;28;38741;-80
2022/05/09 12:12:49;;;;;;;4.53;2.00;;;25.90;95.90;;;;;;5076499;28;37973;-81
2022/05/09 12:15:15;;;;;;;3.88;2.03;;;26.00;95.90;;;;;;5079554;28;39707;-81
2022/05/09 12:17:48;;;;;;;7.70;2.75;;;25.90;95.30;;;;;;5083246;28;39219;-80
2022/05/09 12:20:26;;;;;;;5.93;2.42;;;24.20;96.50;;;;;;5081568;28;38064;-81
2022/05/09 12:22:57;;;;;;;6.05;2.47;;;23.10;97.30;;;;;;5080104;28;38022;-79
2022/05/09 12:25:40;;;;;;;6.75;2.42;;;23.30;97.70;;;;;;5062594;28;39126;-82
2022/05/09 12:28:30;;;;;;;6.57;2.30;;;24.20;97.10;;;;;;5058814;27;39087;-80
2022/05/09 12:31:05;;;;;;;7.07;3.03;;;24.60;97.60;;;;;;5061708;27;38220;-81
2022/05/09 12:33:52;;;;;;;5.70;2.95;;;24.70;96.40;;;;;;5064252;28;47139;-82
2022/05/09 12:36:21;;;;;;;6.50;2.90;;;24.30;97.10;;;;;;5067674;27;40828;-80
2022/05/09 12:38:49;;;;;;;5.90;2.70;;;23.30;97.80;;;;;;5085007;28;39119;-80
2022/05/09 12:41:23;;;;;;;5.25;2.83;;;23.90;98.20;;;;;;5069520;27;37666;-80
2022/05/09 12:44:00;;;;;;;6.30;2.95;;;24.50;97.90;;;;;;5087042;28;38132;-78
2022/05/09 12:46:30;;;;;;;8.30;2.80;;;24.90;96.80;;;;;;5084942;28;40606;-80
2022/05/09 12:49:00;;;;;;;5.78;3.28;;;25.60;96.80;;;;;;5077103;28;40601;-81
2022/05/09 12:51:30;;;;;;;6.22;2.47;;;25.00;96.50;;;;;;5079399;28;38048;-81
2022/05/09 12:53:57;;;;;;;4.05;2.45;;;24.60;96.70;;;;;;5077984;28;38020;-79
2022/05/09 12:56:27;;;;;;;4.25;2.47;;;25.30;98.20;;;;;;5082712;28;39303;-79
2022/05/09 12:59:05;;;;;;;6.13;2.15;;;25.40;96.10;;;;;;5085358;28;39000;-80
2022/05/09 13:01:33;;;;;;;4.88;1.50;;;25.20;97.40;;;;;;5076723;28;47064;-80
2022/05/09 13:04:06;;;;;;;3.03;1.15;;;24.60;95.50;;;;;;5083490;27;37052;-79
2022/05/09 13:06:38;;;;;;;3.58;1.27;;;24.40;97.80;;;;;;5079129;28;49667;-79
2022/05/09 13:09:26;;;;;;;3.28;1.27;;;25.00;96.10;;;;;;5079873;28;39253;-77
2022/05/09 13:11:57;;;;;;;5.82;1.30;;;25.60;96.70;;;;;;5084629;28;39081;-79
2022/05/09 13:14:41;;;;;;;4.70;1.85;;;26.20;96.60;;;;;;5075867;28;38158;-78
2022/05/09 13:17:18;;;;;;;3.60;1.58;;;26.20;95.40;;;;;;5082710;28;39644;-79